Time;durP1;ratioP1;P1;durP2;ratioP2;P2;SDS_P1;SDS_P2;PMS_P1;PMS_P2;Temp;Humidity;BMP_temperature;BMP_pressure;BME280_temperature;BME280_humidity;BME280_pressure;Samples;Min_cycle;Max_cycle;Signal;HPM_P1;HPM_P2
2022/10/31 00:00:52;;;;;;;18.73;6.97;;;;;;;;;;4976291;28;20039;-66
2022/10/31 00:03:35;;;;;;;20.42;7.18;;;;;;;;;;4980207;28;20046;-67
2022/10/31 00:06:01;;;;;;;18.67;7.15;;;;;;;;;;4950445;28;20039;-70
2022/10/31 00:08:27;;;;;;;19.52;8.25;;;;;;;;;;4962568;28;20097;-65
2022/10/31 00:10:53;;;;;;;16.63;7.20;;;;;;;;;;4970764;28;20046;-67
2022/10/31 00:13:19;;;;;;;15.80;7.88;;;;;;;;;;4976756;28;20481;-67
2022/10/31 00:15:45;;;;;;;14.25;7.13;;;;;;;;;;4968447;28;20066;-67
2022/10/31 00:18:11;;;;;;;21.58;7.95;;;;;;;;;;4965372;28;20043;-66
2022/10/31 00:20:38;;;;;;;25.63;8.55;;;;;;;;;;4969932;28;20082;-65
2022/10/31 00:23:05;;;;;;;16.23;7.82;;;;;;;;;;4971016;28;20045;-67
2022/10/31 00:25:35;;;;;;;18.33;7.80;;;;;;;;;;4966797;28;20086;-70
2022/10/31 00:28:03;;;;;;;15.88;7.63;;;;;;;;;;4970342;28;20050;-67
2022/10/31 00:30:29;;;;;;;17.50;8.10;;;;;;;;;;4965413;28;20462;-66
2022/10/31 00:32:55;;;;;;;17.00;8.23;;;;;;;;;;4972275;28;20394;-65
2022/10/31 00:35:20;;;;;;;17.27;8.32;;;;;;;;;;4992224;28;20141;-67
2022/10/31 00:37:46;;;;;;;22.98;7.68;;;;;;;;;;4986952;28;20061;-68
2022/10/31 00:40:12;;;;;;;19.83;7.90;;;;;;;;;;4988304;28;20050;-67
2022/10/31 00:42:41;;;;;;;17.60;8.32;;;;;;;;;;4993125;28;20149;-68
2022/10/31 00:45:11;;;;;;;18.67;7.40;;;;;;;;;;4993420;28;20070;-67
2022/10/31 00:47:37;;;;;;;18.70;7.70;;;;;;;;;;4991860;28;20057;-69
2022/10/31 00:50:06;;;;;;;20.85;8.00;;;;;;;;;;4991686;28;20042;-67
2022/10/31 00:52:32;;;;;;;12.73;7.40;;;;;;;;;;4991510;28;20500;-66
2022/10/31 00:54:58;;;;;;;22.17;7.63;;;;;;;;;;4995949;28;20047;-67
2022/10/31 00:57:24;;;;;;;16.23;7.95;;;;;;;;;;4993421;28;20244;-68
2022/10/31 00:59:50;;;;;;;20.30;7.35;;;;;;;;;;4994152;28;20066;-66
2022/10/31 01:02:16;;;;;;;13.98;6.82;;;;;;;;;;4989305;28;20121;-66
2022/10/31 01:04:42;;;;;;;14.90;7.47;;;;;;;;;;4991064;28;20050;-71
2022/10/31 01:07:08;;;;;;;16.92;7.45;;;;;;;;;;4992427;28;20078;-67
2022/10/31 01:09:34;;;;;;;18.58;6.97;;;;;;;;;;4991916;28;20141;-67
2022/10/31 01:11:59;;;;;;;17.00;7.15;;;;;;;;;;4992355;28;20495;-67
2022/10/31 01:14:25;;;;;;;12.77;7.30;;;;;;;;;;4990601;28;20114;-67
2022/10/31 01:16:51;;;;;;;15.15;7.00;;;;;;;;;;4992318;28;20051;-66
2022/10/31 01:19:17;;;;;;;15.98;7.82;;;;;;;;;;4994443;28;20050;-67
2022/10/31 01:21:43;;;;;;;21.55;7.75;;;;;;;;;;4991414;28;20576;-66
2022/10/31 01:24:09;;;;;;;21.33;7.50;;;;;;;;;;4991663;28;20081;-67
2022/10/31 01:26:35;;;;;;;22.15;7.90;;;;;;;;;;4984296;28;20443;-68
2022/10/31 01:29:04;;;;;;;17.63;8.00;;;;;;;;;;4988966;28;20142;-67
2022/10/31 01:31:33;;;;;;;14.65;7.43;;;;;;;;;;4969443;28;20062;-64
2022/10/31 01:33:59;;;;;;;18.00;7.55;;;;;;;;;;4977443;28;20116;-64
2022/10/31 01:36:28;;;;;;;19.52;7.72;;;;;;;;;;4982308;28;20061;-64
2022/10/31 01:38:57;;;;;;;17.10;7.90;;;;;;;;;;4983129;28;20042;-64
2022/10/31 01:41:30;;;;;;;17.92;8.52;;;;;;;;;;4974856;28;20046;-66
2022/10/31 01:43:58;;;;;;;18.35;7.90;;;;;;;;;;4968909;28;20047;-64
2022/10/31 01:46:30;;;;;;;16.95;7.45;;;;;;;;;;4970246;28;20045;-63
2022/10/31 01:48:58;;;;;;;16.55;7.75;;;;;;;;;;4970592;28;20555;-63
2022/10/31 01:51:30;;;;;;;18.10;7.95;;;;;;;;;;4968168;28;20482;-64
2022/10/31 01:54:00;;;;;;;14.27;7.78;;;;;;;;;;4968737;28;20054;-66
2022/10/31 01:56:27;;;;;;;14.98;7.80;;;;;;;;;;4947431;28;20051;-64
2022/10/31 01:58:54;;;;;;;19.80;7.75;;;;;;;;;;4971103;28;20050;-64
2022/10/31 02:01:20;;;;;;;16.45;8.40;;;;;;;;;;4971501;28;20047;-65
2022/10/31 02:03:47;;;;;;;24.33;8.52;;;;;;;;;;4971900;28;20097;-63
2022/10/31 02:06:41;;;;;;;14.93;8.10;;;;;;;;;;4969377;28;20050;-63
2022/10/31 02:09:07;;;;;;;18.90;8.20;;;;;;;;;;4945158;28;20054;-64
2022/10/31 02:11:35;;;;;;;17.05;8.18;;;;;;;;;;4967707;28;20062;-65
2022/10/31 02:14:02;;;;;;;17.45;8.05;;;;;;;;;;4972493;28;20197;-66
2022/10/31 02:16:28;;;;;;;13.38;8.60;;;;;;;;;;4972025;28;20148;-64
2022/10/31 02:18:54;;;;;;;16.38;8.40;;;;;;;;;;4976148;28;20493;-64
2022/10/31 02:21:58;;;;;;;17.17;8.60;;;;;;;;;;4978497;28;20054;-64
2022/10/31 02:24:50;;;;;;;18.25;8.30;;;;;;;;;;4969548;28;20046;-64
2022/10/31 02:27:30;;;;;;;16.65;8.35;;;;;;;;;;4974112;28;20046;-63
2022/10/31 02:30:07;;;;;;;18.55;8.75;;;;;;;;;;4981978;28;20046;-65
2022/10/31 02:32:54;;;;;;;21.33;8.85;;;;;;;;;;4975245;28;20554;-64
2022/10/31 02:35:39;;;;;;;15.45;8.70;;;;;;;;;;4971021;28;20058;-66
2022/10/31 02:38:13;;;;;;;21.60;9.18;;;;;;;;;;4968842;28;20220;-65
2022/10/31 02:40:54;;;;;;;16.52;10.05;;;;;;;;;;4969132;28;20071;-63
2022/10/31 02:43:40;;;;;;;19.52;9.48;;;;;;;;;;4967041;28;20055;-64
2022/10/31 02:46:17;;;;;;;19.08;10.38;;;;;;;;;;4972489;28;20358;-68
2022/10/31 02:48:46;;;;;;;22.75;10.13;;;;;;;;;;4966928;28;20512;-63
2022/10/31 02:51:12;;;;;;;18.63;10.57;;;;;;;;;;4964257;28;20043;-64
2022/10/31 02:53:38;;;;;;;16.08;9.43;;;;;;;;;;4968684;28;20131;-64
2022/10/31 02:56:10;;;;;;;15.63;9.93;;;;;;;;;;4966441;28;20134;-64
2022/10/31 02:58:48;;;;;;;18.13;9.70;;;;;;;;;;4972962;28;20115;-63
2022/10/31 03:01:52;;;;;;;25.33;10.40;;;;;;;;;;4965304;28;20047;-66
2022/10/31 03:04:24;;;;;;;25.35;10.18;;;;;;;;;;4959106;28;20062;-64
2022/10/31 03:07:08;;;;;;;21.40;9.65;;;;;;;;;;4970430;28;20054;-63
2022/10/31 03:09:52;;;;;;;20.08;9.82;;;;;;;;;;4970699;28;20476;-64
2022/10/31 03:12:47;;;;;;;30.00;10.02;;;;;;;;;;4967746;28;20058;-65
2022/10/31 03:15:27;;;;;;;18.98;9.75;;;;;;;;;;4965160;28;20055;-63
2022/10/31 03:18:02;;;;;;;16.30;9.68;;;;;;;;;;4969392;28;20066;-64
2022/10/31 03:20:39;;;;;;;18.38;9.70;;;;;;;;;;4956170;28;20061;-64
2022/10/31 03:23:09;;;;;;;17.65;9.27;;;;;;;;;;4969248;28;20054;-64
2022/10/31 03:25:37;;;;;;;19.90;9.70;;;;;;;;;;4966851;28;20438;-65
2022/10/31 03:28:05;;;;;;;17.48;9.52;;;;;;;;;;4968224;28;20421;-65
2022/10/31 03:30:34;;;;;;;16.48;9.00;;;;;;;;;;4969102;28;20059;-63
2022/10/31 03:33:03;;;;;;;19.40;8.80;;;;;;;;;;4973838;28;20496;-63
2022/10/31 03:35:30;;;;;;;17.70;8.52;;;;;;;;;;4982846;28;20060;-64
2022/10/31 03:37:59;;;;;;;21.25;9.35;;;;;;;;;;4987382;28;20569;-64
2022/10/31 03:40:27;;;;;;;22.15;8.88;;;;;;;;;;4987775;28;20049;-64
2022/10/31 03:43:08;;;;;;;15.20;9.25;;;;;;;;;;4986285;28;20046;-63
2022/10/31 03:45:42;;;;;;;20.42;8.77;;;;;;;;;;4987240;28;20046;-63
2022/10/31 03:48:08;;;;;;;25.17;10.00;;;;;;;;;;4982631;28;20062;-64
2022/10/31 03:50:56;;;;;;;21.70;9.52;;;;;;;;;;4983525;28;20129;-65
2022/10/31 03:53:30;;;;;;;19.88;9.30;;;;;;;;;;4989712;28;20042;-64
2022/10/31 03:56:48;;;;;;;19.70;8.85;;;;;;;;;;4989396;28;20084;-63
2022/10/31 03:59:20;;;;;;;17.88;8.18;;;;;;;;;;4952772;28;20456;-63
2022/10/31 04:01:50;;;;;;;16.55;9.30;;;;;;;;;;4985467;28;20054;-64
2022/10/31 04:04:17;;;;;;;16.85;8.73;;;;;;;;;;4988368;28;20114;-64
2022/10/31 04:06:46;;;;;;;19.58;8.75;;;;;;;;;;4989770;28;20058;-64
2022/10/31 04:09:13;;;;;;;21.83;9.20;;;;;;;;;;4994487;28;20066;-65
2022/10/31 04:11:47;;;;;;;15.80;8.10;;;;;;;;;;4993513;28;20069;-63
2022/10/31 04:14:13;;;;;;;20.63;8.50;;;;;;;;;;4987326;28;20039;-63
2022/10/31 04:16:43;;;;;;;20.30;8.77;;;;;;;;;;4995683;28;20045;-63
2022/10/31 04:19:09;;;;;;;23.73;9.20;;;;;;;;;;4993192;28;20137;-65
2022/10/31 04:21:36;;;;;;;16.05;8.52;;;;;;;;;;4988787;28;20046;-66
2022/10/31 04:24:01;;;;;;;16.40;7.57;;;;;;;;;;4990629;28;20104;-63
2022/10/31 04:26:27;;;;;;;17.83;8.15;;;;;;;;;;4987787;28;20184;-65
2022/10/31 04:28:53;;;;;;;18.20;8.70;;;;;;;;;;5001562;28;20132;-65
2022/10/31 04:31:19;;;;;;;18.80;8.52;;;;;;;;;;4991819;28;20054;-65
2022/10/31 04:33:45;;;;;;;21.45;8.48;;;;;;;;;;4978524;28;20047;-63
2022/10/31 04:36:11;;;;;;;16.45;8.25;;;;;;;;;;4977918;28;20076;-63
2022/10/31 04:38:38;;;;;;;21.17;8.07;;;;;;;;;;4981249;28;20045;-63
2022/10/31 04:41:04;;;;;;;13.88;7.65;;;;;;;;;;4973075;28;20054;-65
2022/10/31 04:43:30;;;;;;;19.95;8.10;;;;;;;;;;4980463;28;20523;-63
2022/10/31 04:45:56;;;;;;;13.10;7.68;;;;;;;;;;4980812;28;20050;-64
2022/10/31 04:48:22;;;;;;;18.73;7.97;;;;;;;;;;4982536;28;20121;-63
2022/10/31 04:50:48;;;;;;;15.55;8.13;;;;;;;;;;4973310;28;20084;-65
2022/10/31 04:53:14;;;;;;;14.73;8.15;;;;;;;;;;4975134;28;20050;-64
2022/10/31 04:55:39;;;;;;;18.80;7.80;;;;;;;;;;4977809;28;20134;-65
2022/10/31 04:58:05;;;;;;;16.73;8.52;;;;;;;;;;4975731;28;20053;-65
2022/10/31 05:00:31;;;;;;;23.95;7.88;;;;;;;;;;4976472;28;20050;-63
2022/10/31 05:02:58;;;;;;;16.80;7.63;;;;;;;;;;4971661;28;20074;-64
2022/10/31 05:05:29;;;;;;;15.77;8.13;;;;;;;;;;4971816;28;20517;-65
2022/10/31 05:07:55;;;;;;;22.38;8.00;;;;;;;;;;4981022;28;20131;-61
2022/10/31 05:10:24;;;;;;;27.48;8.30;;;;;;;;;;4984129;28;20469;-65
2022/10/31 05:12:55;;;;;;;18.45;7.97;;;;;;;;;;4970717;28;20051;-64
2022/10/31 05:15:22;;;;;;;21.00;8.70;;;;;;;;;;4967248;28;20043;-63
2022/10/31 05:17:49;;;;;;;15.93;7.50;;;;;;;;;;4974630;28;20057;-67
2022/10/31 05:20:16;;;;;;;17.92;8.63;;;;;;;;;;4969884;28;20624;-66
2022/10/31 05:22:50;;;;;;;15.57;8.63;;;;;;;;;;4980386;28;20058;-67
2022/10/31 05:25:17;;;;;;;17.77;7.82;;;;;;;;;;4974379;28;20393;-66
2022/10/31 05:27:46;;;;;;;15.25;8.20;;;;;;;;;;4966138;28;20062;-65
2022/10/31 05:30:13;;;;;;;17.55;8.18;;;;;;;;;;4979288;28;20492;-67
2022/10/31 05:32:45;;;;;;;18.00;7.70;;;;;;;;;;4976796;28;20066;-64
2022/10/31 05:35:13;;;;;;;15.52;8.38;;;;;;;;;;4987339;28;20062;-63
2022/10/31 05:37:39;;;;;;;19.67;8.88;;;;;;;;;;4991306;28;20057;-66
2022/10/31 05:40:07;;;;;;;18.35;8.48;;;;;;;;;;4972547;28;20043;-65
2022/10/31 05:42:33;;;;;;;18.60;8.65;;;;;;;;;;4989659;28;20531;-64
2022/10/31 05:44:59;;;;;;;21.27;9.35;;;;;;;;;;4988769;28;20038;-63
2022/10/31 05:47:25;;;;;;;16.13;8.55;;;;;;;;;;4990296;28;20129;-65
2022/10/31 05:49:51;;;;;;;17.30;8.15;;;;;;;;;;4990471;28;20076;-64
2022/10/31 05:52:17;;;;;;;19.90;8.57;;;;;;;;;;4989639;28;20049;-65
2022/10/31 05:54:43;;;;;;;18.77;8.07;;;;;;;;;;4990535;28;20121;-64
2022/10/31 05:57:09;;;;;;;17.38;8.70;;;;;;;;;;4992153;28;20741;-66
2022/10/31 05:59:35;;;;;;;18.05;8.25;;;;;;;;;;4987725;28;20047;-66
2022/10/31 06:02:01;;;;;;;18.42;8.15;;;;;;;;;;4985506;28;20053;-63
2022/10/31 06:04:27;;;;;;;21.17;7.95;;;;;;;;;;4988238;28;20053;-62
2022/10/31 06:06:52;;;;;;;12.30;7.82;;;;;;;;;;4989743;28;20050;-63
2022/10/31 06:09:18;;;;;;;16.80;8.20;;;;;;;;;;4984780;28;20540;-63
2022/10/31 06:11:44;;;;;;;19.23;9.30;;;;;;;;;;4984484;28;20052;-65
2022/10/31 06:14:10;;;;;;;17.02;8.50;;;;;;;;;;4999279;28;20052;-71
2022/10/31 06:16:36;;;;;;;19.05;8.80;;;;;;;;;;4986642;28;20054;-65
2022/10/31 06:19:02;;;;;;;14.68;8.35;;;;;;;;;;4989303;28;20082;-64
2022/10/31 06:21:28;;;;;;;19.75;8.43;;;;;;;;;;4985540;28;20059;-65
2022/10/31 06:23:54;;;;;;;18.52;8.77;;;;;;;;;;4996094;28;20042;-67
2022/10/31 06:26:19;;;;;;;21.48;8.80;;;;;;;;;;4992405;28;20133;-69
2022/10/31 06:28:45;;;;;;;20.33;8.30;;;;;;;;;;4985133;28;20499;-65
2022/10/31 06:31:11;;;;;;;15.18;8.43;;;;;;;;;;4984712;28;20053;-66
2022/10/31 06:33:37;;;;;;;15.60;8.23;;;;;;;;;;4983456;28;20345;-68
2022/10/31 06:36:04;;;;;;;18.75;8.80;;;;;;;;;;4973831;28;20044;-66
2022/10/31 06:38:30;;;;;;;19.58;8.77;;;;;;;;;;4979634;28;20530;-66
2022/10/31 06:40:56;;;;;;;23.63;8.95;;;;;;;;;;4972661;28;20146;-64
2022/10/31 06:43:22;;;;;;;18.85;8.55;;;;;;;;;;4972226;28;20133;-64
2022/10/31 06:45:47;;;;;;;15.88;8.77;;;;;;;;;;4972366;28;20061;-64
2022/10/31 06:48:14;;;;;;;24.00;8.98;;;;;;;;;;4975085;28;20503;-66
2022/10/31 06:50:39;;;;;;;18.42;9.38;;;;;;;;;;4970335;28;20050;-65
2022/10/31 06:53:05;;;;;;;17.98;9.52;;;;;;;;;;4972310;28;20136;-66
2022/10/31 06:55:31;;;;;;;17.65;8.70;;;;;;;;;;4972132;28;20077;-66
2022/10/31 06:57:59;;;;;;;23.98;9.70;;;;;;;;;;4959838;28;20476;-64
2022/10/31 07:00:27;;;;;;;18.67;8.95;;;;;;;;;;4974306;28;20054;-66
2022/10/31 07:03:00;;;;;;;21.45;8.88;;;;;;;;;;4965464;28;20054;-66
2022/10/31 07:05:27;;;;;;;18.95;8.88;;;;;;;;;;4978936;28;20356;-66
2022/10/31 07:07:55;;;;;;;26.38;9.52;;;;;;;;;;4974477;28;20104;-66
2022/10/31 07:10:21;;;;;;;26.35;9.50;;;;;;;;;;4970795;28;20488;-65
2022/10/31 07:12:47;;;;;;;20.77;9.48;;;;;;;;;;4967747;28;20062;-65
2022/10/31 07:15:13;;;;;;;17.40;8.85;;;;;;;;;;4977515;28;20041;-66
2022/10/31 07:17:39;;;;;;;22.50;9.75;;;;;;;;;;4977671;28;20053;-66
2022/10/31 07:20:05;;;;;;;18.38;8.48;;;;;;;;;;4975618;28;20050;-67
2022/10/31 07:22:35;;;;;;;24.45;9.40;;;;;;;;;;4980268;28;20065;-66
2022/10/31 07:25:02;;;;;;;16.88;8.93;;;;;;;;;;4963526;28;20092;-66
2022/10/31 07:27:28;;;;;;;23.75;9.77;;;;;;;;;;4975729;28;20066;-67
2022/10/31 07:29:54;;;;;;;19.27;9.23;;;;;;;;;;4956444;28;20053;-67
2022/10/31 07:32:20;;;;;;;24.38;9.50;;;;;;;;;;4968004;28;20071;-68
2022/10/31 07:34:46;;;;;;;24.08;9.75;;;;;;;;;;4959938;28;20064;-66
2022/10/31 07:37:12;;;;;;;20.77;9.15;;;;;;;;;;4958512;28;20448;-66
2022/10/31 07:39:38;;;;;;;20.45;9.35;;;;;;;;;;4957927;28;20051;-67
2022/10/31 07:42:04;;;;;;;24.48;9.90;;;;;;;;;;4954573;28;20106;-69
2022/10/31 07:44:30;;;;;;;28.38;10.48;;;;;;;;;;4955855;28;20051;-69
2022/10/31 07:46:56;;;;;;;22.83;10.23;;;;;;;;;;4958638;28;20526;-69
2022/10/31 07:49:21;;;;;;;33.22;10.93;;;;;;;;;;4957401;28;20062;-68
2022/10/31 07:51:47;;;;;;;21.10;10.20;;;;;;;;;;4957031;28;20592;-68
2022/10/31 07:54:13;;;;;;;22.88;10.32;;;;;;;;;;4959646;28;20051;-68
2022/10/31 07:56:39;;;;;;;28.10;9.63;;;;;;;;;;4952727;28;20126;-68
2022/10/31 07:59:05;;;;;;;24.08;9.70;;;;;;;;;;4961303;28;20145;-69
2022/10/31 08:01:31;;;;;;;26.27;13.00;;;;;;;;;;4957775;28;20082;-69
2022/10/31 08:03:57;;;;;;;32.42;10.77;;;;;;;;;;4962496;28;20489;-60
2022/10/31 08:06:23;;;;;;;18.70;9.95;;;;;;;;;;4964300;28;20043;-70
2022/10/31 08:08:48;;;;;;;25.65;9.80;;;;;;;;;;4964719;28;20972;-62
2022/10/31 08:11:14;;;;;;;23.10;10.70;;;;;;;;;;4968884;28;20592;-62
2022/10/31 08:13:42;;;;;;;30.90;9.63;;;;;;;;;;4972011;28;20102;-59
2022/10/31 08:16:08;;;;;;;29.25;10.45;;;;;;;;;;4965225;28;20059;-60
2022/10/31 08:18:37;;;;;;;29.55;10.02;;;;;;;;;;4977832;28;20130;-60
2022/10/31 08:21:03;;;;;;;30.30;10.32;;;;;;;;;;4960675;28;20061;-60
2022/10/31 08:23:28;;;;;;;32.97;10.50;;;;;;;;;;4970382;28;20038;-64
2022/10/31 08:25:54;;;;;;;24.15;9.98;;;;;;;;;;4951531;28;20468;-60
2022/10/31 08:28:20;;;;;;;28.25;10.68;;;;;;;;;;4960411;28;20392;-62
2022/10/31 08:30:47;;;;;;;23.10;10.38;;;;;;;;;;4964000;28;20133;-60
2022/10/31 08:33:17;;;;;;;16.20;9.60;;;;;;;;;;4971072;28;20058;-60
2022/10/31 08:35:43;;;;;;;25.10;10.05;;;;;;;;;;4975320;28;20050;-59
2022/10/31 08:38:12;;;;;;;27.10;10.48;;;;;;;;;;4978353;28;20451;-63
2022/10/31 08:40:38;;;;;;;19.98;10.73;;;;;;;;;;4978623;28;20181;-61
2022/10/31 08:43:05;;;;;;;24.33;10.50;;;;;;;;;;4977276;28;20504;-62
2022/10/31 08:45:32;;;;;;;25.70;11.52;;;;;;;;;;4984408;28;20401;-61
2022/10/31 08:48:00;;;;;;;30.92;11.18;;;;;;;;;;4980046;28;20100;-61
2022/10/31 08:50:28;;;;;;;22.52;10.32;;;;;;;;;;4982436;28;20492;-61
2022/10/31 08:52:53;;;;;;;23.75;10.27;;;;;;;;;;4983309;28;20049;-60
2022/10/31 08:55:20;;;;;;;24.83;11.00;;;;;;;;;;4986519;28;20046;-61
2022/10/31 08:57:45;;;;;;;25.30;10.48;;;;;;;;;;4984954;28;20117;-60
2022/10/31 09:00:12;;;;;;;28.52;11.55;;;;;;;;;;4985471;28;20386;-60
2022/10/31 09:02:38;;;;;;;25.45;11.07;;;;;;;;;;4980554;28;20480;-61
2022/10/31 09:05:04;;;;;;;32.60;10.32;;;;;;;;;;4987256;28;20050;-65
2022/10/31 09:07:30;;;;;;;24.73;10.50;;;;;;;;;;4986371;28;20046;-61
2022/10/31 09:09:56;;;;;;;25.80;10.38;;;;;;;;;;4981904;28;20042;-63
2022/10/31 09:12:23;;;;;;;27.15;11.00;;;;;;;;;;4983722;28;20048;-61
2022/10/31 09:14:49;;;;;;;23.42;10.88;;;;;;;;;;4987157;28;20440;-60
2022/10/31 09:17:15;;;;;;;30.13;11.38;;;;;;;;;;4986294;28;20054;-61
2022/10/31 09:19:41;;;;;;;34.60;11.40;;;;;;;;;;4987062;28;20125;-61
2022/10/31 09:22:07;;;;;;;21.17;10.35;;;;;;;;;;4984537;28;20053;-63
2022/10/31 09:24:32;;;;;;;31.27;10.68;;;;;;;;;;4992146;28;20068;-63
2022/10/31 09:26:58;;;;;;;22.17;9.50;;;;;;;;;;4988240;28;20050;-65
2022/10/31 09:29:24;;;;;;;28.92;10.85;;;;;;;;;;4997608;28;20045;-62
2022/10/31 09:31:50;;;;;;;32.70;11.38;;;;;;;;;;4992436;28;20418;-61
2022/10/31 09:34:16;;;;;;;18.27;9.80;;;;;;;;;;4988309;28;20062;-64
2022/10/31 09:36:42;;;;;;;21.08;10.85;;;;;;;;;;4998056;28;20051;-63
2022/10/31 09:39:09;;;;;;;25.30;10.73;;;;;;;;;;4988552;28;20038;-63
2022/10/31 09:41:51;;;;;;;24.42;10.57;;;;;;;;;;4987721;28;20038;-62
2022/10/31 09:45:02;;;;;;;29.38;10.48;;;;;;;;;;4986205;28;20046;-61
2022/10/31 09:48:05;;;;;;;31.70;10.00;;;;;;;;;;4962368;28;20046;-67
2022/10/31 09:50:40;;;;;;;24.02;10.30;;;;;;;;;;4988334;28;20484;-61
2022/10/31 09:53:30;;;;;;;30.98;10.85;;;;;;;;;;4990225;28;20507;-63
2022/10/31 09:55:58;;;;;;;36.67;10.57;;;;;;;;;;4987753;28;20044;-62
2022/10/31 09:58:28;;;;;;;33.35;11.20;;;;;;;;;;4984843;28;20050;-61
2022/10/31 10:00:58;;;;;;;20.73;10.60;;;;;;;;;;4983705;28;20054;-62
2022/10/31 10:03:34;;;;;;;24.52;9.27;;;;;;;;;;4982318;28;20050;-62
2022/10/31 10:06:24;;;;;;;25.35;10.02;;;;;;;;;;4986291;28;20052;-60
2022/10/31 10:08:50;;;;;;;23.45;9.50;;;;;;;;;;4987588;28;20050;-61
2022/10/31 10:11:39;;;;;;;23.17;8.73;;;;;;;;;;4970881;28;20046;-60
2022/10/31 10:14:29;;;;;;;22.42;8.68;;;;;;;;;;4985547;28;20537;-60
2022/10/31 10:17:14;;;;;;;14.07;6.72;;;;;;;;;;4989050;28;20052;-60
2022/10/31 10:20:03;;;;;;;22.80;8.05;;;;;;;;;;4987703;28;20038;-61
2022/10/31 10:22:52;;;;;;;23.35;7.75;;;;;;;;;;4983760;28;20053;-64
2022/10/31 10:25:33;;;;;;;17.48;7.60;;;;;;;;;;4982874;28;20042;-61
2022/10/31 10:27:59;;;;;;;20.45;7.55;;;;;;;;;;4985982;28;20478;-60
2022/10/31 10:30:43;;;;;;;22.00;7.10;;;;;;;;;;4988598;28;20069;-61
2022/10/31 10:33:18;;;;;;;20.15;7.10;;;;;;;;;;4976729;28;20061;-66
2022/10/31 10:35:53;;;;;;;20.02;7.32;;;;;;;;;;4963605;28;20476;-60
2022/10/31 10:38:34;;;;;;;19.77;6.82;;;;;;;;;;4964776;28;20105;-60
2022/10/31 10:41:05;;;;;;;19.15;7.03;;;;;;;;;;4965049;28;20038;-63
2022/10/31 10:43:36;;;;;;;17.02;6.97;;;;;;;;;;4966607;28;20053;-59
2022/10/31 10:49:16;;;;;;;21.70;6.47;;;;;;;;;;4970300;28;20493;-64
2022/10/31 10:51:58;;;;;;;17.58;6.40;;;;;;;;;;4963963;28;20130;-62
2022/10/31 10:54:46;;;;;;;21.60;6.50;;;;;;;;;;4961806;28;20043;-63
2022/10/31 10:57:41;;;;;;;21.48;7.10;;;;;;;;;;4963411;28;20109;-63
2022/10/31 11:00:23;;;;;;;17.33;6.40;;;;;;;;;;4943923;28;20048;-61
2022/10/31 11:02:50;;;;;;;18.45;6.63;;;;;;;;;;4964217;28;20693;-61
2022/10/31 11:05:42;;;;;;;15.38;6.05;;;;;;;;;;4964783;28;20065;-63
2022/10/31 11:08:08;;;;;;;15.68;5.70;;;;;;;;;;4965916;28;20050;-61
2022/10/31 11:10:35;;;;;;;12.93;5.47;;;;;;;;;;4967265;28;20107;-61
2022/10/31 11:13:13;;;;;;;16.83;5.40;;;;;;;;;;4963715;28;20058;-61
2022/10/31 11:16:06;;;;;;;16.90;6.22;;;;;;;;;;4963065;28;20035;-63
2022/10/31 11:18:39;;;;;;;19.20;6.10;;;;;;;;;;4966531;28;21833;-65
2022/10/31 11:21:05;;;;;;;20.00;6.60;;;;;;;;;;4965959;28;20105;-61
2022/10/31 11:23:32;;;;;;;19.63;6.90;;;;;;;;;;4967122;28;20077;-61
2022/10/31 11:26:05;;;;;;;20.27;5.70;;;;;;;;;;4963104;28;20062;-62
2022/10/31 11:28:34;;;;;;;22.08;6.38;;;;;;;;;;4964127;28;20139;-60
2022/10/31 11:31:06;;;;;;;14.88;5.40;;;;;;;;;;4959633;28;20138;-61
2022/10/31 11:33:37;;;;;;;25.25;6.10;;;;;;;;;;4977710;28;20058;-62
2022/10/31 11:36:24;;;;;;;16.77;5.82;;;;;;;;;;4983516;28;20496;-63
2022/10/31 11:38:51;;;;;;;19.77;6.03;;;;;;;;;;4981174;28;20084;-61
2022/10/31 11:41:38;;;;;;;15.75;5.20;;;;;;;;;;4974025;28;20042;-60
2022/10/31 11:44:14;;;;;;;22.50;6.22;;;;;;;;;;4971663;28;20885;-60
2022/10/31 11:46:49;;;;;;;17.35;5.93;;;;;;;;;;4972282;28;20551;-62
2022/10/31 11:49:19;;;;;;;16.90;5.68;;;;;;;;;;4971612;28;20046;-64
2022/10/31 11:51:52;;;;;;;20.98;6.53;;;;;;;;;;4970212;28;20300;-63
2022/10/31 11:54:25;;;;;;;20.65;6.22;;;;;;;;;;4952989;28;20078;-62
2022/10/31 11:56:51;;;;;;;16.00;6.07;;;;;;;;;;4970064;28;20066;-64
2022/10/31 11:59:22;;;;;;;21.35;6.45;;;;;;;;;;4969354;28;20046;-63
2022/10/31 12:01:50;;;;;;;14.00;6.15;;;;;;;;;;4972890;28;20046;-64
2022/10/31 12:04:19;;;;;;;17.95;5.90;;;;;;;;;;4974545;28;20077;-64
2022/10/31 12:06:47;;;;;;;17.45;6.35;;;;;;;;;;4975322;28;20047;-64
2022/10/31 12:09:30;;;;;;;15.80;5.80;;;;;;;;;;4971198;28;20035;-63
2022/10/31 12:12:25;;;;;;;18.55;5.53;;;;;;;;;;4973891;28;20599;-68
2022/10/31 12:15:09;;;;;;;19.25;5.50;;;;;;;;;;4950878;28;20130;-67
2022/10/31 12:17:45;;;;;;;15.43;5.45;;;;;;;;;;4962271;28;20438;-65
2022/10/31 12:20:26;;;;;;;12.13;5.78;;;;;;;;;;4969583;28;20182;-65
2022/10/31 12:23:08;;;;;;;19.70;5.65;;;;;;;;;;4951152;28;20089;-68
2022/10/31 12:25:52;;;;;;;15.77;6.28;;;;;;;;;;4973299;28;20546;-66
2022/10/31 12:28:36;;;;;;;16.27;6.40;;;;;;;;;;4969204;28;20049;-63
2022/10/31 12:31:10;;;;;;;20.70;5.43;;;;;;;;;;4974789;28;20061;-67
2022/10/31 12:34:13;;;;;;;15.80;6.18;;;;;;;;;;4973165;28;20466;-67
2022/10/31 12:37:18;;;;;;;14.80;5.30;;;;;;;;;;4973514;28;20055;-65
2022/10/31 12:39:50;;;;;;;14.65;4.88;;;;;;;;;;4968183;28;20051;-66
2022/10/31 12:42:40;;;;;;;12.15;5.72;;;;;;;;;;4974583;28;20051;-69
2022/10/31 12:45:27;;;;;;;13.15;6.18;;;;;;;;;;4972979;28;20050;-65
2022/10/31 12:48:05;;;;;;;21.85;6.35;;;;;;;;;;4972429;28;20062;-65
2022/10/31 12:50:52;;;;;;;17.70;5.65;;;;;;;;;;4970852;28;20062;-66
2022/10/31 12:53:31;;;;;;;15.73;6.20;;;;;;;;;;4973502;28;20046;-67
2022/10/31 12:56:15;;;;;;;13.95;5.50;;;;;;;;;;4972007;28;20055;-68
2022/10/31 12:58:50;;;;;;;15.23;5.75;;;;;;;;;;4969230;28;20158;-68
2022/10/31 13:01:22;;;;;;;14.57;5.20;;;;;;;;;;4973002;28;20725;-67
2022/10/31 13:04:05;;;;;;;16.00;5.45;;;;;;;;;;4976261;28;20065;-67
2022/10/31 13:06:39;;;;;;;19.05;5.47;;;;;;;;;;4961390;28;20046;-68
2022/10/31 13:09:13;;;;;;;14.68;5.68;;;;;;;;;;4970607;28;20050;-69
2022/10/31 13:11:50;;;;;;;15.98;6.38;;;;;;;;;;4972378;28;20050;-67
2022/10/31 13:14:49;;;;;;;13.55;5.88;;;;;;;;;;4971266;28;20038;-68
2022/10/31 13:17:30;;;;;;;15.88;5.90;;;;;;;;;;4971629;28;20062;-69
2022/10/31 13:20:29;;;;;;;17.88;6.68;;;;;;;;;;4973539;28;20661;-68
2022/10/31 13:23:05;;;;;;;14.10;4.78;;;;;;;;;;4972298;28;20058;-69
2022/10/31 13:25:38;;;;;;;14.43;5.82;;;;;;;;;;4974023;28;20131;-68
2022/10/31 13:28:12;;;;;;;12.02;5.50;;;;;;;;;;4970897;28;20069;-68
2022/10/31 13:30:40;;;;;;;17.65;5.30;;;;;;;;;;4974636;28;20070;-68
2022/10/31 13:33:54;;;;;;;14.45;5.65;;;;;;;;;;4974961;28;20128;-69
2022/10/31 13:36:36;;;;;;;13.25;5.45;;;;;;;;;;4931640;28;20452;-72
2022/10/31 13:39:32;;;;;;;14.40;5.00;;;;;;;;;;4961218;28;20498;-72
2022/10/31 13:42:08;;;;;;;14.10;6.10;;;;;;;;;;4954901;28;20066;-70
2022/10/31 13:44:37;;;;;;;18.10;5.63;;;;;;;;;;4969005;28;20410;-69
2022/10/31 13:47:04;;;;;;;16.65;5.75;;;;;;;;;;4975561;28;20058;-68
2022/10/31 13:49:30;;;;;;;13.50;5.97;;;;;;;;;;4971059;28;20055;-68
2022/10/31 13:52:09;;;;;;;14.73;5.38;;;;;;;;;;4975066;28;20121;-72
2022/10/31 13:54:37;;;;;;;15.95;6.22;;;;;;;;;;4969364;28;20539;-67
2022/10/31 13:57:07;;;;;;;12.13;5.78;;;;;;;;;;4973675;28;20115;-71
2022/10/31 13:59:37;;;;;;;17.75;5.60;;;;;;;;;;4968750;28;20062;-71
2022/10/31 14:02:14;;;;;;;19.52;7.00;;;;;;;;;;4973115;28;20047;-67
2022/10/31 14:04:57;;;;;;;16.30;5.38;;;;;;;;;;4976398;28;20046;-68
2022/10/31 14:07:24;;;;;;;13.85;5.45;;;;;;;;;;4970129;28;20057;-68
2022/10/31 14:10:21;;;;;;;16.42;6.00;;;;;;;;;;4965505;28;20130;-69
2022/10/31 14:12:48;;;;;;;17.08;5.75;;;;;;;;;;4968313;28;20046;-68
2022/10/31 14:15:22;;;;;;;13.45;6.22;;;;;;;;;;4972419;28;20047;-68
2022/10/31 14:17:57;;;;;;;17.13;6.57;;;;;;;;;;4966430;28;20089;-68
2022/10/31 14:20:43;;;;;;;19.02;6.78;;;;;;;;;;4978418;28;20559;-70
2022/10/31 14:23:28;;;;;;;14.30;6.40;;;;;;;;;;4987783;28;20046;-67
2022/10/31 14:26:05;;;;;;;18.52;6.18;;;;;;;;;;4989996;28;20169;-67
2022/10/31 14:28:34;;;;;;;16.80;5.60;;;;;;;;;;4988026;28;20061;-69
2022/10/31 14:31:01;;;;;;;16.55;6.25;;;;;;;;;;4986563;28;20101;-70
2022/10/31 14:33:29;;;;;;;16.65;6.15;;;;;;;;;;4973568;28;20518;-62
2022/10/31 14:36:10;;;;;;;17.80;6.97;;;;;;;;;;4967809;28;20328;-63
2022/10/31 14:38:55;;;;;;;18.67;5.78;;;;;;;;;;4981916;28;20057;-60
2022/10/31 14:41:58;;;;;;;27.85;7.00;;;;;;;;;;4983464;28;20078;-61
2022/10/31 14:44:48;;;;;;;20.25;6.47;;;;;;;;;;4982488;28;20054;-63
2022/10/31 14:47:33;;;;;;;25.98;7.07;;;;;;;;;;4983191;28;20050;-62
2022/10/31 14:50:20;;;;;;;14.43;6.82;;;;;;;;;;4983209;28;20046;-63
2022/10/31 14:52:51;;;;;;;17.20;7.70;;;;;;;;;;4982465;28;20050;-62
2022/10/31 14:55:18;;;;;;;20.63;6.43;;;;;;;;;;4984985;28;20053;-64
2022/10/31 14:58:07;;;;;;;19.73;6.50;;;;;;;;;;4985072;28;20112;-62
2022/10/31 15:00:35;;;;;;;27.50;7.47;;;;;;;;;;4983285;28;20495;-64